createdAt,value
2022-09-02T00:00:32.304Z,21.40
2022-09-02T00:02:04.068Z,21.37
2022-09-02T00:03:35.854Z,21.35
2022-09-02T00:05:07.855Z,21.41
2022-09-02T00:06:40.907Z,21.41
2022-09-02T00:08:12.838Z,21.40
2022-09-02T00:09:44.441Z,21.41
2022-09-02T00:11:17.028Z,21.39
2022-09-02T00:12:49.386Z,21.40
2022-09-02T00:14:25.685Z,21.43
2022-09-02T00:15:57.442Z,21.41
2022-09-02T00:17:29.324Z,21.35
2022-09-02T00:19:01.747Z,21.25
2022-09-02T00:20:33.256Z,21.14
2022-09-02T00:22:04.966Z,21.13
2022-09-02T00:23:37.015Z,21.09
2022-09-02T00:25:09.864Z,21.08
2022-09-02T00:26:41.630Z,21.13
2022-09-02T00:28:15.026Z,21.17
2022-09-02T00:29:47.167Z,21.19
2022-09-02T00:31:18.856Z,21.18
2022-09-02T00:32:50.762Z,21.17
2022-09-02T00:34:22.607Z,21.15
2022-09-02T00:35:54.406Z,21.16
2022-09-02T00:37:26.909Z,21.18
2022-09-02T00:38:58.910Z,21.09
2022-09-02T00:40:30.734Z,20.94
2022-09-02T00:42:03.212Z,20.76
2022-09-02T00:43:54.156Z,20.66
2022-09-02T00:45:25.958Z,20.57
2022-09-02T00:46:58.093Z,20.54
2022-09-02T00:48:29.845Z,20.57
2022-09-02T00:50:01.479Z,20.65
2022-09-02T00:51:37.469Z,20.69
2022-09-02T00:53:09.913Z,20.73
2022-09-02T00:54:44.160Z,20.76
2022-09-02T00:56:19.014Z,20.80
2022-09-02T00:58:01.398Z,20.87
2022-09-02T00:59:41.160Z,20.85
2022-09-02T01:01:12.953Z,20.82
2022-09-02T01:02:46.319Z,20.81
2022-09-02T01:04:17.879Z,20.80
2022-09-02T01:05:49.853Z,20.80
2022-09-02T01:07:22.728Z,20.79
2022-09-02T01:08:57.318Z,20.77
2022-09-02T01:10:30.889Z,20.78
2022-09-02T01:12:06.267Z,20.82
2022-09-02T01:13:40.982Z,20.84
2022-09-02T01:15:15.945Z,20.88
2022-09-02T01:16:49.575Z,20.89
2022-09-02T01:18:24.204Z,20.91
2022-09-02T01:19:57.540Z,20.92
2022-09-02T01:21:29.409Z,20.91
2022-09-02T01:23:02.495Z,20.91
2022-09-02T01:24:34.926Z,20.90
2022-09-02T01:26:08.078Z,20.92
2022-09-02T01:27:40.086Z,20.90
2022-09-02T01:29:11.705Z,20.91
2022-09-02T01:30:44.892Z,20.92
2022-09-02T01:32:16.534Z,20.93
2022-09-02T01:33:48.187Z,20.91
2022-09-02T01:35:20.754Z,20.96
2022-09-02T01:36:52.354Z,20.97
2022-09-02T01:38:23.984Z,20.99
2022-09-02T01:39:57.749Z,20.96
2022-09-02T01:41:29.297Z,20.93
2022-09-02T01:43:02.319Z,20.89
2022-09-02T01:44:35.050Z,20.85
2022-09-02T01:46:06.781Z,20.78
2022-09-02T01:47:38.380Z,20.77
2022-09-02T01:49:09.963Z,20.68
2022-09-02T01:50:46.954Z,20.61
2022-09-02T01:52:19.048Z,20.55
2022-09-02T01:53:50.769Z,20.54
2022-09-02T01:55:22.938Z,20.47
2022-09-02T01:56:54.847Z,20.41
2022-09-02T01:58:27.750Z,20.35
2022-09-02T02:00:06.141Z,20.30
2022-09-02T02:01:38.814Z,20.27
2022-09-02T02:03:13.601Z,20.23
2022-09-02T02:04:45.671Z,20.17
2022-09-02T02:06:17.908Z,20.16
2022-09-02T02:07:49.516Z,20.17
2022-09-02T02:09:21.158Z,20.17
2022-09-02T02:10:52.759Z,20.16
2022-09-02T02:12:24.305Z,20.16
2022-09-02T02:13:55.955Z,20.15
2022-09-02T02:17:04.182Z,20.11
2022-09-02T02:18:38.821Z,20.08
2022-09-02T02:20:15.250Z,20.08
2022-09-02T02:21:46.859Z,20.03
2022-09-02T02:23:18.566Z,20.02
2022-09-02T02:24:50.594Z,20.04
2022-09-02T02:26:22.249Z,20.05
2022-09-02T02:27:54.258Z,20.05
2022-09-02T02:29:27.564Z,20.05
2022-09-02T02:31:02.549Z,20.09
2022-09-02T02:32:34.189Z,20.10
2022-09-02T02:34:05.930Z,20.10
2022-09-02T02:35:40.437Z,20.10
2022-09-02T02:37:13.160Z,20.06
2022-09-02T02:38:46.405Z,20.01
2022-09-02T02:40:21.464Z,19.99
2022-09-02T02:41:58.905Z,19.96
2022-09-02T02:43:30.532Z,19.94
2022-09-02T02:45:02.130Z,19.91
2022-09-02T02:46:35.894Z,19.88
2022-09-02T02:48:07.518Z,19.82
2022-09-02T02:49:39.559Z,19.78
2022-09-02T02:51:11.249Z,19.74
2022-09-02T02:52:43.084Z,19.75
2022-09-02T02:54:14.765Z,19.72
2022-09-02T02:55:49.795Z,19.72
2022-09-02T02:57:21.712Z,19.73
2022-09-02T02:58:53.709Z,19.77
2022-09-02T03:00:26.335Z,19.79
2022-09-02T03:01:57.955Z,19.81
2022-09-02T03:03:30.053Z,19.82
2022-09-02T03:05:01.813Z,19.82
2022-09-02T03:06:33.492Z,19.80
2022-09-02T03:08:05.697Z,19.79
2022-09-02T03:09:37.816Z,19.77
2022-09-02T03:11:09.532Z,19.71
2022-09-02T03:12:41.245Z,19.65
2022-09-02T03:14:12.829Z,19.64
2022-09-02T03:15:44.718Z,19.59
2022-09-02T03:17:16.824Z,19.57
2022-09-02T03:18:51.817Z,19.54
2022-09-02T03:20:23.629Z,19.52
2022-09-02T03:21:55.291Z,19.50
2022-09-02T03:23:39.023Z,19.46
2022-09-02T03:25:11.344Z,19.45
2022-09-02T03:26:43.135Z,19.45
2022-09-02T03:28:14.820Z,19.46
2022-09-02T03:29:46.405Z,19.46
2022-09-02T03:31:19.578Z,19.48
2022-09-02T03:32:54.220Z,19.51
2022-09-02T03:34:25.732Z,19.52
2022-09-02T03:35:57.353Z,19.55
2022-09-02T03:37:29.084Z,19.62
2022-09-02T03:39:00.905Z,19.65
2022-09-02T03:40:32.632Z,19.69
2022-09-02T03:42:05.638Z,19.71
2022-09-02T03:43:37.428Z,19.71
2022-09-02T03:45:09.482Z,19.72
2022-09-02T03:46:41.057Z,19.73
2022-09-02T03:48:13.400Z,19.74
2022-09-02T03:49:44.905Z,19.77
2022-09-02T03:51:16.576Z,19.79
2022-09-02T03:52:48.571Z,19.78
2022-09-02T03:54:20.391Z,19.77
2022-09-02T03:55:52.053Z,19.72
2022-09-02T03:57:25.974Z,19.72
2022-09-02T03:58:57.546Z,19.72
2022-09-02T04:00:32.160Z,19.71
2022-09-02T04:02:03.902Z,19.74
2022-09-02T04:03:35.576Z,19.75
2022-09-02T04:05:10.333Z,19.77
2022-09-02T04:06:47.617Z,19.76
2022-09-02T04:08:19.390Z,19.75
2022-09-02T04:09:51.217Z,19.77
2022-09-02T04:11:23.294Z,19.76
2022-09-02T04:12:54.966Z,19.76
2022-09-02T04:14:27.696Z,19.75
2022-09-02T04:16:01.824Z,19.76
2022-09-02T04:17:35.727Z,19.77
2022-09-02T04:19:08.788Z,19.76
2022-09-02T04:20:40.819Z,19.73
2022-09-02T04:22:12.388Z,19.70
2022-09-02T04:23:44.455Z,19.69
2022-09-02T04:25:16.082Z,19.67
2022-09-02T04:26:47.783Z,19.63
2022-09-02T04:28:19.364Z,19.59
2022-09-02T04:29:50.999Z,19.57
2022-09-02T04:31:23.189Z,19.57
2022-09-02T04:32:54.848Z,19.57
2022-09-02T04:34:26.489Z,19.56
2022-09-02T04:35:58.229Z,19.52
2022-09-02T04:37:30.177Z,19.56
2022-09-02T04:39:02.031Z,19.58
2022-09-02T04:40:33.740Z,19.56
2022-09-02T04:42:05.775Z,19.60
2022-09-02T04:43:37.367Z,19.60
2022-09-02T04:45:09.352Z,19.63
2022-09-02T04:46:40.992Z,19.62
2022-09-02T04:48:12.829Z,19.62
2022-09-02T04:49:44.555Z,19.66
2022-09-02T04:51:17.134Z,19.69
2022-09-02T04:52:48.781Z,19.69
2022-09-02T04:54:20.530Z,19.67
2022-09-02T04:55:57.376Z,19.66
2022-09-02T04:57:29.653Z,19.71
2022-09-02T04:59:01.526Z,19.73
2022-09-02T05:00:33.363Z,19.77
2022-09-02T05:02:05.382Z,19.81
2022-09-02T05:03:37.344Z,19.81
2022-09-02T05:05:09.139Z,19.82
2022-09-02T05:06:44.367Z,19.83
2022-09-02T05:08:22.644Z,19.86
2022-09-02T05:09:58.248Z,19.91
2022-09-02T05:11:30.328Z,19.99
2022-09-02T05:13:01.944Z,20.03
2022-09-02T05:14:33.683Z,20.08
2022-09-02T05:16:05.405Z,20.09
2022-09-02T05:17:37.173Z,20.09
2022-09-02T05:19:10.772Z,20.09
2022-09-02T05:20:45.340Z,20.06
2022-09-02T05:22:17.147Z,20.05
2022-09-02T05:23:49.028Z,20.05
2022-09-02T05:25:20.963Z,20.04
2022-09-02T05:26:52.790Z,20.05
2022-09-02T05:28:25.162Z,20.05
2022-09-02T05:29:57.078Z,20.06
2022-09-02T05:31:29.195Z,20.08
2022-09-02T05:33:00.874Z,20.11
2022-09-02T05:34:33.849Z,20.12
2022-09-02T05:36:05.878Z,20.15
2022-09-02T05:37:37.581Z,20.20
2022-09-02T05:39:09.615Z,20.21
2022-09-02T05:40:41.175Z,20.21
2022-09-02T05:42:12.758Z,20.24
2022-09-02T05:43:45.112Z,20.26
2022-09-02T05:45:16.930Z,20.27
2022-09-02T05:46:49.159Z,20.29
2022-09-02T05:48:39.496Z,20.28
2022-09-02T05:50:14.290Z,20.28
2022-09-02T05:51:47.633Z,20.33
2022-09-02T05:53:19.289Z,20.36
2022-09-02T05:54:51.040Z,20.39
2022-09-02T05:56:22.865Z,20.42
2022-09-02T05:57:54.485Z,20.44
2022-09-02T05:59:27.274Z,20.44
2022-09-02T06:00:59.243Z,20.47
2022-09-02T06:02:31.108Z,20.49
2022-09-02T06:04:03.321Z,20.52
2022-09-02T06:05:36.058Z,20.55
2022-09-02T06:07:07.732Z,20.59
2022-09-02T06:08:41.499Z,20.63
2022-09-02T06:10:13.578Z,20.64
2022-09-02T06:11:46.206Z,20.66
2022-09-02T06:21:22.000Z,20.74
2022-09-02T06:23:12.181Z,20.75
2022-09-02T06:24:43.803Z,20.80
2022-09-02T06:26:15.623Z,20.86
2022-09-02T06:27:47.183Z,20.89
2022-09-02T06:29:18.869Z,20.95
2022-09-02T06:30:50.718Z,20.98
2022-09-02T06:32:22.348Z,21.04
2022-09-02T06:33:54.498Z,21.04
2022-09-02T06:35:26.084Z,21.03
2022-09-02T06:36:57.958Z,21.07
2022-09-02T06:38:30.076Z,21.11
2022-09-02T06:40:01.954Z,21.12
2022-09-02T06:41:33.925Z,21.13
2022-09-02T06:43:05.696Z,21.13
2022-09-02T06:44:38.241Z,21.16
2022-09-02T06:46:14.040Z,21.18
2022-09-02T06:47:46.195Z,21.24
2022-09-02T06:49:17.830Z,21.30
2022-09-02T06:50:49.491Z,21.35
2022-09-02T06:52:21.061Z,21.41
2022-09-02T06:53:52.838Z,21.43
2022-09-02T06:55:24.853Z,21.47
2022-09-02T06:56:56.583Z,21.53
2022-09-02T06:58:28.223Z,21.58
2022-09-02T07:00:01.940Z,21.63
2022-09-02T07:01:34.485Z,21.64
2022-09-02T07:03:24.922Z,21.67
2022-09-02T07:05:15.388Z,21.68
2022-09-02T07:06:48.972Z,21.71
2022-09-02T07:08:21.897Z,21.74
2022-09-02T07:09:53.813Z,21.77
2022-09-02T07:11:26.010Z,21.83
2022-09-02T07:12:57.724Z,21.89
2022-09-02T07:14:29.585Z,21.91
2022-09-02T07:16:01.434Z,21.93
2022-09-02T07:17:33.053Z,21.96
2022-09-02T07:19:05.652Z,21.96
2022-09-02T07:20:40.167Z,21.99
2022-09-02T07:22:11.755Z,21.99
2022-09-02T07:23:43.504Z,22.00
2022-09-02T07:25:16.655Z,22.03
2022-09-02T07:26:48.447Z,22.08
2022-09-02T07:28:22.131Z,22.11
2022-09-02T07:29:54.763Z,22.16
2022-09-02T07:31:27.721Z,22.12
2022-09-02T07:32:59.867Z,22.05
2022-09-02T07:34:31.543Z,22.03
2022-09-02T07:36:06.602Z,21.96
2022-09-02T07:37:43.858Z,21.90
2022-09-02T07:39:15.790Z,21.84
2022-09-02T07:40:49.113Z,21.84
2022-09-02T07:42:20.877Z,21.79
2022-09-02T07:43:54.366Z,21.82
2022-09-02T07:45:26.928Z,21.90
2022-09-02T07:46:58.660Z,21.96
2022-09-02T07:48:30.411Z,21.98
2022-09-02T07:50:20.268Z,21.99
2022-09-02T07:51:52.928Z,22.03
2022-09-02T07:53:25.268Z,22.08
2022-09-02T07:54:56.946Z,22.12
2022-09-02T07:56:28.707Z,22.04
2022-09-02T07:58:00.302Z,22.03
2022-09-02T07:59:32.105Z,22.02
2022-09-02T08:01:03.903Z,22.01
2022-09-02T08:02:35.752Z,22.02
2022-09-02T08:04:07.452Z,22.04
2022-09-02T08:05:39.364Z,22.03
2022-09-02T08:07:11.207Z,22.07
2022-09-02T08:08:42.945Z,22.16
2022-09-02T08:10:17.348Z,22.23
2022-09-02T08:11:50.210Z,22.29
2022-09-02T08:13:22.063Z,22.34
2022-09-02T08:14:58.980Z,22.35
2022-09-02T08:16:30.864Z,22.36
2022-09-02T08:18:02.664Z,22.40
2022-09-02T08:19:34.497Z,22.39
2022-09-02T08:21:06.268Z,22.38
2022-09-02T08:22:38.044Z,22.39
2022-09-02T08:24:10.339Z,22.38
2022-09-02T08:25:42.619Z,22.42
2022-09-02T08:27:14.243Z,22.50
2022-09-02T08:28:46.001Z,22.54
2022-09-02T08:30:17.784Z,22.57
2022-09-02T08:31:52.087Z,22.60
2022-09-02T08:33:25.702Z,22.63
2022-09-02T08:34:57.387Z,22.64
2022-09-02T08:36:31.810Z,22.67
2022-09-02T08:38:03.404Z,22.66
2022-09-02T08:39:36.687Z,22.66
2022-09-02T08:41:12.207Z,22.68
2022-09-02T08:42:45.412Z,22.65
2022-09-02T08:44:20.890Z,22.71
2022-09-02T08:45:54.478Z,22.74
2022-09-02T08:47:27.177Z,22.81
2022-09-02T08:49:08.448Z,22.87
2022-09-02T08:50:40.489Z,22.95
2022-09-02T08:52:17.645Z,22.95
2022-09-02T08:53:54.617Z,23.01
2022-09-02T08:55:30.025Z,23.12
2022-09-02T08:57:01.708Z,23.16
2022-09-02T08:58:34.143Z,23.15
2022-09-02T09:00:07.426Z,23.24
2022-09-02T09:01:49.844Z,23.36
2022-09-02T09:03:40.206Z,23.49
2022-09-02T09:05:14.911Z,23.56
2022-09-02T09:06:49.539Z,23.65
2022-09-02T09:08:42.218Z,23.69
2022-09-02T09:10:25.751Z,23.69
2022-09-02T09:11:57.661Z,23.64
2022-09-02T09:13:29.330Z,23.66
2022-09-02T09:15:16.770Z,23.77
2022-09-02T09:16:59.537Z,23.87
2022-09-02T09:18:41.241Z,23.91
2022-09-02T09:20:17.805Z,23.96
2022-09-02T09:21:49.659Z,23.94
2022-09-02T09:23:22.211Z,23.92
2022-09-02T09:24:54.452Z,23.96
2022-09-02T09:26:34.268Z,24.14
2022-09-02T09:36:10.607Z,25.24
2022-09-02T09:37:46.559Z,25.33
2022-09-02T09:39:29.863Z,25.42
2022-09-02T09:41:11.521Z,25.55
2022-09-02T09:42:47.822Z,25.68
2022-09-02T09:44:45.471Z,25.92
2022-09-02T09:46:21.267Z,26.11
2022-09-02T09:48:31.973Z,26.22
2022-09-02T09:52:51.381Z,26.30
2022-09-02T09:57:27.077Z,26.54
2022-09-02T09:59:09.167Z,26.50
2022-09-02T10:00:41.789Z,26.47
2022-09-02T10:02:40.177Z,26.54
2022-09-02T10:04:45.994Z,26.61
2022-09-02T10:06:19.091Z,26.56
2022-09-02T10:08:00.981Z,26.72
2022-09-02T10:09:34.623Z,26.94
2022-09-02T10:11:08.759Z,27.08
2022-09-02T10:12:41.123Z,27.22
2022-09-02T10:17:08.924Z,27.29
2022-09-02T10:24:38.565Z,27.37
2022-09-02T10:26:12.164Z,27.39
2022-09-02T10:27:48.150Z,27.42
2022-09-02T10:29:26.177Z,27.43
2022-09-02T10:31:04.598Z,27.42
2022-09-02T10:32:40.458Z,27.43
2022-09-02T10:34:24.399Z,27.48
2022-09-02T10:35:56.612Z,27.57
2022-09-02T10:37:48.299Z,27.75
2022-09-02T10:39:40.663Z,27.99
2022-09-02T10:41:50.975Z,28.23
2022-09-02T10:43:41.675Z,28.25
2022-09-02T10:45:13.783Z,28.03
2022-09-02T10:47:04.735Z,28.04
2022-09-02T10:48:57.294Z,28.11
2022-09-02T10:50:32.355Z,28.22
2022-09-02T10:52:08.325Z,28.26
2022-09-02T10:53:45.831Z,28.27
2022-09-02T10:55:30.072Z,28.23
2022-09-02T10:57:02.251Z,28.22
2022-09-02T11:00:51.045Z,28.21
2022-09-02T11:08:04.967Z,28.64
2022-09-02T11:09:41.683Z,28.80
2022-09-02T11:11:15.126Z,28.97
2022-09-02T11:13:03.693Z,29.15
2022-09-02T11:14:53.811Z,29.33
2022-09-02T11:16:26.278Z,29.44
2022-09-02T11:18:05.506Z,29.50
2022-09-02T11:19:41.835Z,29.49
2022-09-02T11:21:13.596Z,29.47
2022-09-02T11:23:03.880Z,29.50
2022-09-02T11:32:21.878Z,29.05
2022-09-02T11:35:38.602Z,29.15
2022-09-02T11:37:13.944Z,29.23
2022-09-02T11:38:47.374Z,29.32
2022-09-02T11:40:34.330Z,29.39
2022-09-02T11:42:25.460Z,29.40
2022-09-02T11:44:00.659Z,29.50
2022-09-02T11:45:41.273Z,29.65
2022-09-02T11:47:15.634Z,29.88
2022-09-02T11:48:51.224Z,30.09
2022-09-02T11:50:26.642Z,30.16
2022-09-02T11:52:02.604Z,30.15
2022-09-02T11:53:38.780Z,30.18
2022-09-02T11:55:12.273Z,30.15
2022-09-02T11:56:44.949Z,30.10
2022-09-02T11:58:35.602Z,29.99
2022-09-02T12:00:08.288Z,29.85
2022-09-02T12:01:50.462Z,29.71
2022-09-02T12:03:39.163Z,29.50
2022-09-02T12:05:30.254Z,29.14
2022-09-02T12:07:09.927Z,28.80
2022-09-02T12:08:43.149Z,28.59
2022-09-02T12:10:35.230Z,28.44
2022-09-02T12:12:07.384Z,28.21
2022-09-02T12:13:43.759Z,28.09
2022-09-02T12:15:17.423Z,28.11
2022-09-02T12:17:14.911Z,28.16
2022-09-02T12:19:00.727Z,28.32
2022-09-02T12:23:17.439Z,28.46
2022-09-02T12:23:54.792Z,28.25
2022-09-02T12:29:48.376Z,28.25
2022-09-02T12:31:43.226Z,28.17
2022-09-02T12:33:16.289Z,28.14
2022-09-02T12:34:52.495Z,28.14
2022-09-02T12:36:42.984Z,28.17
2022-09-02T12:38:16.627Z,28.17
2022-09-02T12:39:50.779Z,28.10
2022-09-02T12:41:23.670Z,28.17
2022-09-02T12:42:55.811Z,28.10
2022-09-02T12:44:46.119Z,28.02
2022-09-02T12:46:33.107Z,27.73
2022-09-02T12:48:10.484Z,27.29
2022-09-02T12:49:45.302Z,26.98
2022-09-02T12:51:35.670Z,26.84
2022-09-02T12:53:29.998Z,26.58
2022-09-02T12:55:05.062Z,26.34
2022-09-02T12:56:36.668Z,26.15
2022-09-02T12:58:11.953Z,26.06
2022-09-02T12:59:44.499Z,25.95
2022-09-02T13:01:31.002Z,25.65
2022-09-02T13:03:04.444Z,25.38
2022-09-02T13:04:39.379Z,25.25
2022-09-02T13:06:46.556Z,25.10
2022-09-02T13:08:36.989Z,24.94
2022-09-02T13:10:09.492Z,24.81
2022-09-02T13:11:41.200Z,24.70
2022-09-02T13:13:31.569Z,24.60
2022-09-02T13:15:12.468Z,24.57
2022-09-02T13:16:44.286Z,24.48
2022-09-02T13:18:36.773Z,24.47
2022-09-02T13:20:22.658Z,24.46
2022-09-02T13:21:54.680Z,24.49
2022-09-02T13:25:07.760Z,24.34
2022-09-02T13:26:50.407Z,24.43
2022-09-02T13:28:25.507Z,24.54
2022-09-02T13:30:03.383Z,24.54
2022-09-02T13:31:35.170Z,24.61
2022-09-02T13:33:07.445Z,24.76
2022-09-02T13:34:42.532Z,24.86
2022-09-02T13:36:20.770Z,24.95
2022-09-02T13:37:59.866Z,25.04
2022-09-02T13:39:31.618Z,25.22
2022-09-02T13:41:03.279Z,25.43
2022-09-02T13:42:35.312Z,25.60
2022-09-02T13:44:09.996Z,25.70
2022-09-02T13:45:41.894Z,25.79
2022-09-02T13:47:17.021Z,25.88
2022-09-02T13:48:49.335Z,25.95
2022-09-02T13:50:22.220Z,26.09
2022-09-02T13:51:54.864Z,26.17
2022-09-02T13:53:59.086Z,26.24
2022-09-02T13:55:23.925Z,26.30
2022-09-02T13:56:56.090Z,26.33
2022-09-02T13:58:30.997Z,26.22
2022-09-02T14:00:02.906Z,26.10
2022-09-02T14:01:36.216Z,26.00
2022-09-02T14:03:09.504Z,25.96
2022-09-02T14:04:41.358Z,25.95
2022-09-02T14:06:12.987Z,25.93
2022-09-02T14:07:45.300Z,25.85
2022-09-02T14:09:24.716Z,25.84
2022-09-02T14:10:56.798Z,25.84
2022-09-02T14:12:28.501Z,25.75
2022-09-02T14:14:00.325Z,25.75
2022-09-02T14:15:32.347Z,25.70
2022-09-02T14:17:23.723Z,25.72
2022-09-02T14:19:08.727Z,25.73
2022-09-02T14:20:54.180Z,25.63
2022-09-02T14:22:28.883Z,25.56
2022-09-02T14:24:00.636Z,25.51
2022-09-02T14:25:38.496Z,25.48
2022-09-02T14:27:15.839Z,25.55
2022-09-02T14:28:50.663Z,25.61
2022-09-02T14:30:26.566Z,25.68
2022-09-02T14:32:07.082Z,25.73
2022-09-02T14:33:42.801Z,25.73
2022-09-02T14:35:17.085Z,25.77
2022-09-02T14:36:48.671Z,25.81
2022-09-02T14:38:23.551Z,25.83
2022-09-02T14:40:11.723Z,25.76
2022-09-02T14:41:50.634Z,25.55
2022-09-02T14:43:23.062Z,25.37
2022-09-02T14:44:54.687Z,25.31
2022-09-02T14:46:30.145Z,25.25
2022-09-02T14:48:19.881Z,25.22
2022-09-02T14:49:52.278Z,25.21
2022-09-02T14:51:24.037Z,25.16
2022-09-02T14:52:58.460Z,25.10
2022-09-02T14:54:49.563Z,25.14
2022-09-02T14:56:41.086Z,25.21
2022-09-02T14:58:12.713Z,25.23
2022-09-02T14:59:44.335Z,25.27
2022-09-02T15:01:16.102Z,25.31
2022-09-02T15:02:47.948Z,25.35
2022-09-02T15:04:19.757Z,25.37
2022-09-02T15:05:52.503Z,25.43
2022-09-02T15:07:24.266Z,25.43
2022-09-02T15:08:56.034Z,25.42
2022-09-02T15:10:28.154Z,25.42
2022-09-02T15:12:02.836Z,25.43
2022-09-02T15:13:35.005Z,25.38
2022-09-02T15:15:07.118Z,25.30
2022-09-02T15:16:39.399Z,25.30
2022-09-02T15:18:11.808Z,25.28
2022-09-02T15:19:43.419Z,25.29
2022-09-02T15:21:15.456Z,25.30
2022-09-02T15:22:47.220Z,25.31
2022-09-02T15:24:18.971Z,25.29
2022-09-02T15:25:50.635Z,25.21
2022-09-02T15:27:22.462Z,25.14
2022-09-02T15:28:56.120Z,25.12
2022-09-02T15:30:27.771Z,25.08
2022-09-02T15:32:00.376Z,25.07
2022-09-02T15:33:32.329Z,25.06
2022-09-02T15:35:04.578Z,25.07
2022-09-02T15:36:36.215Z,25.09
2022-09-02T15:38:09.247Z,25.10
2022-09-02T15:39:41.493Z,25.11
2022-09-02T15:41:13.967Z,25.10
2022-09-02T15:42:45.656Z,25.10
2022-09-02T15:44:17.794Z,25.12
2022-09-02T15:45:49.956Z,25.11
2022-09-02T15:47:21.712Z,25.08
2022-09-02T15:48:54.761Z,25.03
2022-09-02T15:50:30.398Z,25.03
2022-09-02T15:52:03.191Z,25.05
2022-09-02T15:53:34.843Z,25.02
2022-09-02T15:55:06.983Z,25.01
2022-09-02T15:56:40.555Z,24.98
2022-09-02T15:58:12.582Z,24.95
2022-09-02T15:59:44.236Z,24.90
2022-09-02T16:01:16.790Z,24.85
2022-09-02T16:02:48.679Z,24.79
2022-09-02T16:04:20.431Z,24.71
2022-09-02T16:05:52.058Z,24.60
2022-09-02T16:07:24.477Z,24.52
2022-09-02T16:08:56.189Z,24.46
2022-09-02T16:10:28.564Z,24.44
2022-09-02T16:12:00.216Z,24.40
2022-09-02T16:13:32.006Z,24.37
2022-09-02T16:15:03.914Z,24.31
2022-09-02T16:16:38.813Z,24.27
2022-09-02T16:18:10.396Z,24.26
2022-09-02T16:19:42.043Z,24.26
2022-09-02T16:21:14.456Z,24.27
2022-09-02T16:22:47.517Z,24.26
2022-09-02T16:24:21.541Z,24.23
2022-09-02T16:26:09.151Z,24.21
2022-09-02T16:27:53.255Z,24.16
2022-09-02T16:29:28.349Z,24.10
2022-09-02T16:31:00.241Z,24.05
2022-09-02T16:32:32.264Z,24.02
2022-09-02T16:34:04.058Z,23.98
2022-09-02T16:35:36.598Z,23.99
2022-09-02T16:37:08.238Z,23.98
2022-09-02T16:38:39.857Z,23.96
2022-09-02T16:40:11.916Z,23.94
2022-09-02T16:41:44.630Z,23.92
2022-09-02T16:43:16.487Z,23.91
2022-09-02T16:44:51.502Z,23.88
2022-09-02T16:46:23.967Z,23.85
2022-09-02T16:47:56.082Z,23.83
2022-09-02T16:49:28.347Z,23.82
2022-09-02T16:51:04.126Z,23.80
2022-09-02T16:52:36.833Z,23.76
2022-09-02T16:54:09.088Z,23.73
2022-09-02T16:55:49.558Z,23.69
2022-09-02T16:57:21.287Z,23.68
2022-09-02T16:58:53.608Z,23.68
2022-09-02T17:00:25.258Z,23.65
2022-09-02T17:01:57.408Z,23.61
2022-09-02T17:03:29.147Z,23.57
2022-09-02T17:05:01.141Z,23.53
2022-09-02T17:06:33.059Z,23.51
2022-09-02T17:08:05.148Z,23.39
2022-09-02T17:09:36.818Z,23.27
2022-09-02T17:11:11.573Z,23.18
2022-09-02T17:12:43.528Z,23.14
2022-09-02T17:14:16.284Z,23.09
2022-09-02T17:15:48.817Z,23.02
2022-09-02T17:17:20.700Z,22.92
2022-09-02T17:18:52.599Z,22.86
2022-09-02T17:20:25.455Z,22.82
2022-09-02T17:21:57.151Z,22.79
2022-09-02T17:23:29.091Z,22.75
2022-09-02T17:25:00.835Z,22.70
2022-09-02T17:26:34.595Z,22.61
2022-09-02T17:28:06.394Z,22.56
2022-09-02T17:29:55.443Z,22.56
2022-09-02T17:31:31.242Z,22.55
2022-09-02T17:33:02.965Z,22.63
2022-09-02T17:34:34.670Z,22.67
2022-09-02T17:36:06.482Z,22.68
2022-09-02T17:37:38.481Z,22.67
2022-09-02T17:39:11.315Z,22.68
2022-09-02T17:41:01.795Z,22.66
2022-09-02T17:42:34.506Z,22.61
2022-09-02T17:44:06.098Z,22.55
2022-09-02T17:45:37.779Z,22.53
2022-09-02T17:47:09.731Z,22.49
2022-09-02T17:49:05.769Z,22.44
2022-09-02T17:50:33.713Z,22.40
2022-09-02T17:52:07.171Z,22.43
2022-09-02T17:53:40.385Z,22.41
2022-09-02T17:55:12.511Z,22.39
2022-09-02T17:56:50.429Z,22.35
2022-09-02T17:58:22.340Z,22.28
2022-09-02T18:00:07.674Z,22.23
2022-09-02T18:01:51.139Z,22.22
2022-09-02T18:03:35.481Z,22.20
2022-09-02T18:05:16.595Z,22.23
2022-09-02T18:06:51.578Z,22.24
2022-09-02T18:08:34.913Z,22.24
2022-09-02T18:10:06.753Z,22.26
2022-09-02T18:11:38.844Z,22.28
2022-09-02T18:13:13.993Z,22.30
2022-09-02T18:14:47.075Z,22.26
2022-09-02T18:16:32.294Z,22.22
2022-09-02T18:18:04.362Z,22.23
2022-09-02T18:19:48.057Z,22.24
2022-09-02T18:21:21.264Z,22.22
2022-09-02T18:22:58.279Z,22.19
2022-09-02T18:24:56.232Z,22.22
2022-09-02T18:26:46.608Z,22.23
2022-09-02T18:28:33.348Z,22.20
2022-09-02T18:30:09.190Z,22.17
2022-09-02T18:31:56.210Z,22.16
2022-09-02T18:33:33.578Z,22.15
2022-09-02T18:35:24.444Z,22.17
2022-09-02T18:37:14.171Z,22.20
2022-09-02T18:38:48.987Z,22.21
2022-09-02T18:40:33.417Z,22.23
2022-09-02T18:42:23.633Z,22.23
2022-09-02T18:44:11.101Z,22.24
2022-09-02T18:45:50.076Z,22.27
2022-09-02T18:47:23.910Z,22.29
2022-09-02T18:48:56.962Z,22.26
2022-09-02T18:50:51.586Z,22.25
2022-09-02T18:52:26.539Z,22.24
2022-09-02T18:54:00.037Z,22.23
2022-09-02T18:55:35.793Z,22.21
2022-09-02T18:57:07.948Z,22.19
2022-09-02T18:58:40.233Z,22.14
2022-09-02T19:00:12.862Z,22.13
2022-09-02T19:01:44.922Z,22.07
2022-09-02T19:03:17.010Z,22.06
2022-09-02T19:04:48.863Z,22.01
2022-09-02T19:06:24.280Z,21.97
2022-09-02T19:08:21.800Z,21.95
2022-09-02T19:09:55.302Z,21.95
2022-09-02T19:11:27.407Z,21.92
2022-09-02T19:13:00.305Z,21.90
2022-09-02T19:14:32.189Z,21.87
2022-09-02T19:16:05.086Z,21.85
2022-09-02T19:17:38.123Z,21.84
2022-09-02T19:19:10.672Z,21.80
2022-09-02T19:20:42.380Z,21.82
2022-09-02T19:22:13.998Z,21.83
2022-09-02T19:23:46.120Z,21.81
2022-09-02T19:25:18.744Z,21.79
2022-09-02T19:26:51.417Z,21.76
2022-09-02T19:28:23.794Z,21.76
2022-09-02T19:29:57.046Z,21.74
2022-09-02T19:31:29.735Z,21.73
2022-09-02T19:33:01.428Z,21.72
2022-09-02T19:34:34.115Z,21.69
2022-09-02T19:36:05.815Z,21.70
2022-09-02T19:37:44.702Z,21.68
2022-09-02T19:39:16.757Z,21.63
2022-09-02T19:40:49.721Z,21.59
2022-09-02T19:42:24.157Z,21.55
2022-09-02T19:43:56.324Z,21.54
2022-09-02T19:45:29.568Z,21.53
2022-09-02T19:47:49.763Z,21.51
2022-09-02T19:48:54.098Z,21.52
2022-09-02T19:50:26.222Z,21.49
2022-09-02T19:51:57.861Z,21.40
2022-09-02T19:53:32.470Z,21.33
2022-09-02T19:55:04.327Z,21.25
2022-09-02T19:56:36.244Z,21.21
2022-09-02T19:58:07.818Z,21.20
2022-09-02T19:59:39.542Z,21.19
2022-09-02T20:01:11.160Z,21.15
2022-09-02T20:02:43.071Z,21.13
2022-09-02T20:04:16.071Z,21.12
2022-09-02T20:05:52.677Z,21.10
2022-09-02T20:07:25.924Z,21.08
2022-09-02T20:08:57.641Z,21.02
2022-09-02T20:10:30.452Z,20.98
2022-09-02T20:12:02.650Z,20.96
2022-09-02T20:13:38.742Z,20.94
2022-09-02T20:15:12.720Z,20.97
2022-09-02T20:16:47.703Z,20.97
2022-09-02T20:18:21.675Z,20.96
2022-09-02T20:19:55.435Z,20.95
2022-09-02T20:21:27.924Z,20.93
2022-09-02T20:22:59.708Z,20.91
2022-09-02T20:24:34.345Z,20.90
2022-09-02T20:26:06.033Z,20.85
2022-09-02T20:27:56.079Z,20.79
2022-09-02T20:29:33.694Z,20.73
2022-09-02T20:31:09.818Z,20.66
2022-09-02T20:32:41.623Z,20.63
2022-09-02T20:34:32.278Z,20.63
2022-09-02T20:36:08.469Z,20.65
2022-09-02T20:37:58.437Z,20.65
2022-09-02T20:39:43.501Z,20.57
2022-09-02T20:41:28.046Z,20.57
2022-09-02T20:43:09.049Z,20.54
2022-09-02T20:44:50.241Z,20.45
2022-09-02T20:46:35.477Z,20.41
2022-09-02T20:48:16.496Z,20.40
2022-09-02T20:49:54.124Z,20.37
2022-09-02T20:51:45.968Z,20.40
2022-09-02T20:53:28.089Z,20.39
2022-09-02T20:55:18.562Z,20.29
2022-09-02T20:56:59.713Z,20.18
2022-09-02T20:58:43.457Z,20.10
2022-09-02T21:00:15.795Z,20.06
2022-09-02T21:01:47.513Z,20.09
2022-09-02T21:03:19.190Z,20.05
2022-09-02T21:04:53.193Z,19.99
2022-09-02T21:06:26.853Z,19.98
2022-09-02T21:08:02.032Z,19.98
2022-09-02T21:09:39.120Z,19.95
2022-09-02T21:11:14.729Z,19.90
2022-09-02T21:12:48.703Z,19.87
2022-09-02T21:14:33.861Z,19.83
2022-09-02T21:16:07.652Z,19.84
2022-09-02T21:17:48.256Z,19.86
2022-09-02T21:19:38.594Z,19.90
2022-09-02T21:21:22.579Z,20.01
2022-09-02T21:22:55.704Z,20.07